Vestaburg, Michigan
Current Conditions -  °F | °C
As of 1:11 PM on Thursday 18 Dec 2014 (Local Time) from KAMN Reporting Station
Overcast Overcast  
Wind Chill: 24°   Ceiling: 1200
Heat Index: 30°   Visibility: 10mi
Dew Point: 26°   Wind: 6mph
Humidity: 86%   Direction: 320°NW
Pressure: 30.18"   Gusts: NA
Location:  43.4°N, 84.91°W
Report Text: KAMN 181811Z AUTO 32005KT 10SM OVC012 M01/M03 A3018 RMK AO2 T10101031
Loading
Personal Weather Stations






























Interactive Weather Map New forecast layout! Learn more

10-Day Weather Forecast

Advertisements
Track Severe Weather on mobile